createdAt,value
2018-02-03T00:00:12.933Z,21.09
2018-02-03T00:00:44.587Z,21.09
2018-02-03T00:01:16.281Z,21.08
2018-02-03T00:01:47.900Z,21.09
2018-02-03T00:02:19.531Z,21.07
2018-02-03T00:02:51.153Z,21.05
2018-02-03T00:03:22.822Z,21.05
2018-02-03T00:03:54.438Z,21.04
2018-02-03T00:04:26.067Z,21.06
2018-02-03T00:04:57.698Z,21.07
2018-02-03T00:05:29.321Z,21.07
2018-02-03T00:06:00.951Z,21.06
2018-02-03T00:06:32.641Z,21.06
2018-02-03T00:07:04.269Z,21.05
2018-02-03T00:07:35.890Z,21.06
2018-02-03T00:08:07.516Z,21.04
2018-02-03T00:08:39.137Z,21.05
2018-02-03T00:09:10.757Z,21.03
2018-02-03T00:09:42.401Z,21.06
2018-02-03T00:10:14.025Z,21.08
2018-02-03T00:10:45.653Z,21.05
2018-02-03T00:11:17.281Z,21.05
2018-02-03T00:11:48.970Z,21.04
2018-02-03T00:12:20.594Z,21.05
2018-02-03T00:12:52.221Z,21.05
2018-02-03T00:13:23.846Z,21.06
2018-02-03T00:13:55.479Z,21.08
2018-02-03T00:14:27.109Z,21.09
2018-02-03T00:14:58.733Z,21.09
2018-02-03T00:15:30.367Z,21.12
2018-02-03T00:16:01.998Z,21.12
2018-02-03T00:16:33.626Z,21.12
2018-02-03T00:17:05.262Z,21.10
2018-02-03T00:17:36.885Z,21.12
2018-02-03T00:18:08.510Z,21.10
2018-02-03T00:18:40.138Z,21.10
2018-02-03T00:19:11.761Z,21.10
2018-02-03T00:19:43.385Z,21.10
2018-02-03T00:20:15.010Z,21.09
2018-02-03T00:20:46.639Z,21.09
2018-02-03T00:21:18.262Z,21.08
2018-02-03T00:21:49.885Z,21.08
2018-02-03T00:22:21.570Z,21.08
2018-02-03T00:22:53.405Z,21.11
2018-02-03T00:23:25.050Z,21.12
2018-02-03T00:23:56.674Z,21.12
2018-02-03T00:24:28.334Z,21.11
2018-02-03T00:24:59.962Z,21.12
2018-02-03T00:25:31.590Z,21.10
2018-02-03T00:26:03.209Z,21.11
2018-02-03T00:26:34.833Z,21.12
2018-02-03T00:27:06.457Z,21.10
2018-02-03T00:27:38.149Z,21.11
2018-02-03T00:28:09.773Z,21.09
2018-02-03T00:28:41.405Z,21.10
2018-02-03T00:29:13.033Z,21.10
2018-02-03T00:29:44.662Z,21.10
2018-02-03T00:30:16.286Z,21.08
2018-02-03T00:30:47.914Z,21.08
2018-02-03T00:31:19.538Z,21.09
2018-02-03T00:31:51.169Z,21.06
2018-02-03T00:32:22.801Z,21.07
2018-02-03T00:32:54.487Z,21.07
2018-02-03T00:33:26.113Z,21.11
2018-02-03T00:33:57.745Z,21.11
2018-02-03T00:34:29.366Z,21.10
2018-02-03T00:35:00.994Z,21.12
2018-02-03T00:35:32.710Z,21.10
2018-02-03T00:36:04.333Z,21.09
2018-02-03T00:36:35.966Z,21.08
2018-02-03T00:37:07.593Z,21.06
2018-02-03T00:37:39.222Z,21.10
2018-02-03T00:38:10.905Z,21.10
2018-02-03T00:38:42.525Z,21.08
2018-02-03T00:39:14.156Z,21.10
2018-02-03T00:39:45.788Z,21.11
2018-02-03T00:40:17.410Z,21.09
2018-02-03T00:40:49.033Z,21.10
2018-02-03T00:41:20.657Z,21.11
2018-02-03T00:41:52.285Z,21.09
2018-02-03T00:42:23.913Z,21.09
2018-02-03T00:42:55.541Z,21.09
2018-02-03T00:43:27.226Z,21.09
2018-02-03T00:43:58.854Z,21.09
2018-02-03T00:44:30.482Z,21.09
2018-02-03T00:45:02.106Z,21.09
2018-02-03T00:45:33.733Z,21.10
2018-02-03T00:46:05.362Z,21.09
2018-02-03T00:46:36.985Z,21.10
2018-02-03T00:47:08.614Z,21.10
2018-02-03T00:47:40.242Z,21.10
2018-02-03T00:48:11.870Z,21.09
2018-02-03T00:48:43.558Z,21.09
2018-02-03T00:49:15.186Z,21.08
2018-02-03T00:49:46.805Z,21.08
2018-02-03T00:50:18.434Z,21.07
2018-02-03T00:50:50.057Z,21.08
2018-02-03T00:51:21.690Z,21.09
2018-02-03T00:51:53.313Z,21.08
2018-02-03T00:52:24.938Z,21.08
2018-02-03T00:52:56.567Z,21.08
2018-02-03T00:53:28.191Z,21.09
2018-02-03T00:53:59.826Z,21.08
2018-02-03T00:54:31.458Z,21.08
2018-02-03T00:55:03.085Z,21.07
2018-02-03T00:55:34.710Z,21.06
2018-02-03T00:56:06.334Z,21.05
2018-02-03T00:56:37.961Z,21.06
2018-02-03T00:57:09.585Z,21.07
2018-02-03T00:57:41.214Z,21.06
2018-02-03T00:58:12.842Z,21.08
2018-02-03T00:58:44.465Z,21.06
2018-02-03T00:59:16.154Z,21.05
2018-02-03T00:59:47.778Z,21.06
2018-02-03T01:00:19.410Z,21.04
2018-02-03T01:00:51.037Z,21.07
2018-02-03T01:01:22.662Z,21.08
2018-02-03T01:01:54.290Z,21.09
2018-02-03T01:02:25.913Z,21.11
2018-02-03T01:02:57.538Z,21.10
2018-02-03T01:03:29.166Z,21.10
2018-02-03T01:04:00.789Z,21.10
2018-02-03T01:04:32.475Z,21.10
2018-02-03T01:05:04.097Z,21.10
2018-02-03T01:05:35.726Z,21.10
2018-02-03T01:06:07.356Z,21.12
2018-02-03T01:06:38.982Z,21.10
2018-02-03T01:07:10.609Z,21.10
2018-02-03T01:07:42.228Z,21.09
2018-02-03T01:08:13.858Z,21.09
2018-02-03T01:08:45.486Z,21.08
2018-02-03T01:09:17.113Z,21.08
2018-02-03T01:09:48.797Z,21.06
2018-02-03T01:10:20.426Z,21.06
2018-02-03T01:10:52.050Z,21.06
2018-02-03T01:11:23.677Z,21.06
2018-02-03T01:11:55.306Z,21.08
2018-02-03T01:12:26.932Z,21.08
2018-02-03T01:12:58.695Z,21.08
2018-02-03T01:13:30.317Z,21.07
2018-02-03T01:14:01.937Z,21.07
2018-02-03T01:14:33.557Z,21.07
2018-02-03T01:15:05.246Z,21.01
2018-02-03T01:15:36.871Z,21.07
2018-02-03T01:16:08.494Z,21.06
2018-02-03T01:16:40.118Z,21.05
2018-02-03T01:17:11.745Z,21.05
2018-02-03T01:17:43.374Z,21.04
2018-02-03T01:18:15.003Z,21.04
2018-02-03T01:18:46.637Z,21.05
2018-02-03T01:19:18.262Z,21.05
2018-02-03T01:19:49.890Z,21.04
2018-02-03T01:20:21.573Z,21.04
2018-02-03T01:20:53.202Z,21.06
2018-02-03T01:21:24.830Z,21.05
2018-02-03T01:21:56.513Z,21.06
2018-02-03T01:22:28.137Z,21.06
2018-02-03T01:22:59.766Z,21.04
2018-02-03T01:23:31.390Z,21.04
2018-02-03T01:24:03.015Z,21.04
2018-02-03T01:24:34.654Z,21.03
2018-02-03T01:25:06.278Z,21.03
2018-02-03T01:25:37.966Z,21.04
2018-02-03T01:26:09.588Z,21.03
2018-02-03T01:26:41.210Z,21.03
2018-02-03T01:27:12.837Z,21.04
2018-02-03T01:27:44.466Z,21.04
2018-02-03T01:28:16.089Z,21.02
2018-02-03T01:28:47.714Z,21.00
2018-02-03T01:29:19.342Z,20.99
2018-02-03T01:29:50.965Z,21.02
2018-02-03T01:30:22.594Z,21.03
2018-02-03T01:30:54.221Z,21.02
2018-02-03T01:31:25.842Z,21.01
2018-02-03T01:31:57.469Z,21.02
2018-02-03T01:32:29.089Z,21.01
2018-02-03T01:33:00.713Z,21.00
2018-02-03T01:33:32.346Z,21.00
2018-02-03T01:34:03.974Z,21.00
2018-02-03T01:34:35.601Z,20.99
2018-02-03T01:35:07.230Z,21.00
2018-02-03T01:35:38.855Z,21.02
2018-02-03T01:36:10.534Z,21.02
2018-02-03T01:36:42.157Z,21.02
2018-02-03T01:37:13.787Z,21.02
2018-02-03T01:37:45.410Z,21.02
2018-02-03T01:38:17.038Z,21.02
2018-02-03T01:38:48.661Z,21.01
2018-02-03T01:39:20.285Z,20.99
2018-02-03T01:39:51.913Z,20.96
2018-02-03T01:40:23.545Z,20.98
2018-02-03T01:40:55.174Z,20.96
2018-02-03T01:41:26.886Z,20.96
2018-02-03T01:41:58.529Z,20.97
2018-02-03T01:42:30.148Z,20.96
2018-02-03T01:43:01.773Z,20.95
2018-02-03T01:43:33.405Z,20.95
2018-02-03T01:44:05.041Z,20.95
2018-02-03T01:44:36.669Z,20.96
2018-02-03T01:45:08.295Z,20.94
2018-02-03T01:45:39.917Z,20.95
2018-02-03T01:46:11.622Z,20.95
2018-02-03T01:46:43.304Z,20.96
2018-02-03T01:47:14.935Z,20.95
2018-02-03T01:47:46.557Z,20.98
2018-02-03T01:48:18.181Z,20.96
2018-02-03T01:48:49.818Z,20.98
2018-02-03T01:49:21.450Z,20.98
2018-02-03T01:49:53.077Z,20.94
2018-02-03T01:50:24.765Z,20.96
2018-02-03T01:50:56.393Z,20.98
2018-02-03T01:51:28.022Z,20.95
2018-02-03T01:51:59.714Z,20.95
2018-02-03T01:52:31.342Z,20.94
2018-02-03T01:53:02.969Z,20.94
2018-02-03T01:53:34.597Z,20.93
2018-02-03T01:54:06.226Z,20.93
2018-02-03T01:54:37.913Z,20.94
2018-02-03T01:55:09.537Z,20.94
2018-02-03T01:55:41.166Z,20.93
2018-02-03T01:56:12.798Z,20.95
2018-02-03T01:56:44.421Z,20.97
2018-02-03T01:57:16.106Z,20.97
2018-02-03T01:57:47.734Z,20.98
2018-02-03T01:58:19.362Z,20.98
2018-02-03T01:58:50.990Z,20.98
2018-02-03T01:59:22.613Z,20.97
2018-02-03T01:59:54.233Z,20.97
2018-02-03T02:00:25.882Z,20.96
2018-02-03T02:00:57.517Z,20.97
2018-02-03T02:01:29.142Z,20.96
2018-02-03T02:02:00.774Z,21.00
2018-02-03T02:02:32.458Z,20.98
2018-02-03T02:03:04.081Z,21.00
2018-02-03T02:03:35.710Z,21.00
2018-02-03T02:04:07.333Z,20.98
2018-02-03T02:04:38.964Z,20.96
2018-02-03T02:05:10.618Z,20.95
2018-02-03T02:05:42.241Z,20.96
2018-02-03T02:06:13.866Z,20.97
2018-02-03T02:06:45.493Z,20.97
2018-02-03T02:07:17.113Z,20.96
2018-02-03T02:07:48.733Z,20.97
2018-02-03T02:08:20.353Z,20.97
2018-02-03T02:08:51.976Z,20.96
2018-02-03T02:09:23.598Z,20.96
2018-02-03T02:09:55.222Z,20.96
2018-02-03T02:10:26.846Z,20.98
2018-02-03T02:10:58.477Z,20.97
2018-02-03T02:11:30.101Z,20.99
2018-02-03T02:12:01.722Z,20.99
2018-02-03T02:12:33.345Z,21.00
2018-02-03T02:13:05.025Z,20.98
2018-02-03T02:13:36.653Z,21.00
2018-02-03T02:14:08.277Z,20.99
2018-02-03T02:14:39.908Z,20.96
2018-02-03T02:15:11.566Z,20.96
2018-02-03T02:15:43.194Z,20.98
2018-02-03T02:16:14.824Z,20.98
2018-02-03T02:16:46.445Z,20.98
2018-02-03T02:17:18.073Z,20.98
2018-02-03T02:17:49.702Z,20.98
2018-02-03T02:18:21.386Z,20.96
2018-02-03T02:18:53.009Z,20.96
2018-02-03T02:19:24.641Z,20.97
2018-02-03T02:19:56.265Z,20.96
2018-02-03T02:20:27.889Z,20.97
2018-02-03T02:20:59.513Z,20.96
2018-02-03T02:21:31.140Z,20.95
2018-02-03T02:22:02.772Z,20.95
2018-02-03T02:22:34.398Z,20.95
2018-02-03T02:23:06.017Z,20.94
2018-02-03T02:23:37.709Z,20.97
2018-02-03T02:24:09.341Z,20.97
2018-02-03T02:24:40.965Z,20.95
2018-02-03T02:25:12.593Z,20.94
2018-02-03T02:25:44.225Z,20.96
2018-02-03T02:26:15.849Z,20.96
2018-02-03T02:26:47.469Z,20.96
2018-02-03T02:27:19.096Z,20.96
2018-02-03T02:27:50.717Z,20.95
2018-02-03T02:28:22.346Z,20.95
2018-02-03T02:28:54.028Z,20.96
2018-02-03T02:29:25.682Z,20.96
2018-02-03T02:29:57.338Z,20.98
2018-02-03T02:30:28.962Z,20.97
2018-02-03T02:31:00.586Z,20.95
2018-02-03T02:31:32.214Z,20.94
2018-02-03T02:32:03.838Z,20.95
2018-02-03T02:32:35.466Z,20.95
2018-02-03T02:33:07.089Z,20.95
2018-02-03T02:33:38.718Z,20.95
2018-02-03T02:34:10.401Z,20.96
2018-02-03T02:34:42.030Z,20.93
2018-02-03T02:35:13.664Z,20.94
2018-02-03T02:35:45.293Z,20.92
2018-02-03T02:36:16.926Z,20.96
2018-02-03T02:36:48.554Z,20.98
2018-02-03T02:37:20.185Z,20.96
2018-02-03T02:37:51.814Z,20.98
2018-02-03T02:38:23.437Z,20.95
2018-02-03T02:38:55.066Z,20.93
2018-02-03T02:39:26.761Z,20.94
2018-02-03T02:39:58.386Z,20.93
2018-02-03T02:40:30.016Z,20.93
2018-02-03T02:41:01.650Z,20.91
2018-02-03T02:41:33.274Z,20.89
2018-02-03T02:42:04.898Z,20.92
2018-02-03T02:42:36.521Z,20.93
2018-02-03T02:43:08.146Z,20.92
2018-02-03T02:43:39.812Z,20.93
2018-02-03T02:44:11.434Z,20.92
2018-02-03T02:44:43.057Z,20.94
2018-02-03T02:45:14.681Z,20.91
2018-02-03T02:45:46.306Z,20.91
2018-02-03T02:46:17.930Z,20.93
2018-02-03T02:46:49.556Z,20.93
2018-02-03T02:47:21.177Z,20.92
2018-02-03T02:47:52.806Z,20.91
2018-02-03T02:48:24.429Z,20.93
2018-02-03T02:48:56.059Z,20.93
2018-02-03T02:49:27.690Z,20.94
2018-02-03T02:49:59.377Z,20.95
2018-02-03T02:50:31.013Z,20.94
2018-02-03T02:51:02.655Z,20.94
2018-02-03T02:51:34.302Z,20.93
2018-02-03T02:52:05.950Z,20.93
2018-02-03T02:52:37.591Z,20.92
2018-02-03T02:53:09.213Z,20.92
2018-02-03T02:53:40.845Z,20.92
2018-02-03T02:54:12.477Z,20.91
2018-02-03T02:54:44.115Z,20.90
2018-02-03T02:55:15.797Z,20.92
2018-02-03T02:55:47.426Z,20.92
2018-02-03T02:56:19.050Z,20.90
2018-02-03T02:56:50.674Z,20.90
2018-02-03T02:57:22.306Z,20.90
2018-02-03T02:57:53.935Z,20.90
2018-02-03T02:58:25.562Z,20.88
2018-02-03T02:58:57.185Z,20.87
2018-02-03T02:59:28.815Z,20.88
2018-02-03T03:00:00.441Z,20.88
2018-02-03T03:00:32.133Z,20.87
2018-02-03T03:01:03.758Z,20.87
2018-02-03T03:01:35.389Z,20.87
2018-02-03T03:02:07.017Z,20.88
2018-02-03T03:02:38.641Z,20.88
2018-02-03T03:03:10.262Z,20.89
2018-02-03T03:03:41.881Z,20.89
2018-02-03T03:04:13.502Z,20.91
2018-02-03T03:04:45.130Z,20.95
2018-02-03T03:05:16.753Z,20.96
2018-02-03T03:05:48.446Z,20.96
2018-02-03T03:06:20.071Z,20.95
2018-02-03T03:06:51.701Z,20.95
2018-02-03T03:07:23.329Z,20.95
2018-02-03T03:07:54.949Z,20.94
2018-02-03T03:08:26.578Z,21.00
2018-02-03T03:08:58.214Z,21.04
2018-02-03T03:09:29.841Z,20.99
2018-02-03T03:10:01.471Z,20.96
2018-02-03T03:10:33.099Z,20.92
2018-02-03T03:11:04.789Z,20.88
2018-02-03T03:11:36.417Z,20.88
2018-02-03T03:12:08.041Z,20.88
2018-02-03T03:12:39.666Z,20.89
2018-02-03T03:13:11.298Z,20.91
2018-02-03T03:13:42.921Z,20.91
2018-02-03T03:14:14.557Z,20.91
2018-02-03T03:14:46.194Z,20.91
2018-02-03T03:15:17.821Z,20.90
2018-02-03T03:15:49.447Z,20.93
2018-02-03T03:16:21.134Z,20.94
2018-02-03T03:16:52.765Z,20.93
2018-02-03T03:17:24.394Z,20.92
2018-02-03T03:17:56.017Z,20.90
2018-02-03T03:18:27.646Z,20.90
2018-02-03T03:18:59.269Z,20.88
2018-02-03T03:19:30.898Z,20.90
2018-02-03T03:20:02.521Z,20.92
2018-02-03T03:20:34.146Z,20.93
2018-02-03T03:21:05.770Z,20.93
2018-02-03T03:21:37.389Z,20.95
2018-02-03T03:22:09.013Z,20.92
2018-02-03T03:22:40.641Z,20.91
2018-02-03T03:23:12.274Z,20.91
2018-02-03T03:23:43.901Z,20.94
2018-02-03T03:24:15.530Z,20.95
2018-02-03T03:24:47.153Z,20.93
2018-02-03T03:25:18.786Z,20.93
2018-02-03T03:25:50.409Z,20.94
2018-02-03T03:26:22.038Z,20.96
2018-02-03T03:26:53.729Z,20.95
2018-02-03T03:27:25.353Z,20.96
2018-02-03T03:27:56.981Z,20.94
2018-02-03T03:28:28.610Z,20.95
2018-02-03T03:29:00.233Z,20.97
2018-02-03T03:29:31.861Z,20.94
2018-02-03T03:30:03.495Z,20.92
2018-02-03T03:30:35.127Z,20.92
2018-02-03T03:31:06.756Z,20.90
2018-02-03T03:31:38.387Z,20.91
2018-02-03T03:32:10.082Z,20.91
2018-02-03T03:32:41.705Z,20.94
2018-02-03T03:33:13.330Z,20.92
2018-02-03T03:33:44.953Z,20.94
2018-02-03T03:34:16.581Z,20.92
2018-02-03T03:34:48.205Z,20.95
2018-02-03T03:35:19.828Z,20.97
2018-02-03T03:35:51.459Z,20.82
2018-02-03T03:36:23.085Z,20.96
2018-02-03T03:36:54.713Z,20.96
2018-02-03T03:37:26.398Z,20.95
2018-02-03T03:37:58.022Z,20.95
2018-02-03T03:38:29.645Z,20.96
2018-02-03T03:39:01.265Z,21.00
2018-02-03T03:39:32.893Z,20.98
2018-02-03T03:40:04.518Z,20.98
2018-02-03T03:40:36.146Z,21.00
2018-02-03T03:41:07.777Z,21.01
2018-02-03T03:41:39.397Z,21.00
2018-02-03T03:42:11.021Z,21.00
2018-02-03T03:42:42.704Z,21.01
2018-02-03T03:43:14.325Z,21.00
2018-02-03T03:43:45.950Z,21.03
2018-02-03T03:44:17.578Z,21.00
2018-02-03T03:44:49.206Z,20.99
2018-02-03T03:45:20.882Z,21.00
2018-02-03T03:45:52.497Z,20.97
2018-02-03T03:46:24.124Z,20.95
2018-02-03T03:46:55.758Z,20.97
2018-02-03T03:47:27.385Z,20.96
2018-02-03T03:47:59.073Z,20.95
2018-02-03T03:48:30.693Z,20.95
2018-02-03T03:49:02.317Z,20.95
2018-02-03T03:49:33.946Z,20.95
2018-02-03T03:50:05.574Z,20.98
2018-02-03T03:50:37.201Z,21.01
2018-02-03T03:51:08.826Z,21.04
2018-02-03T03:51:40.454Z,21.02
2018-02-03T03:52:12.081Z,21.00
2018-02-03T03:52:43.704Z,21.01
2018-02-03T03:53:15.397Z,21.01
2018-02-03T03:53:47.026Z,20.99
2018-02-03T03:54:18.650Z,20.99
2018-02-03T03:54:50.273Z,20.99
2018-02-03T03:55:21.930Z,20.98
2018-02-03T03:55:53.562Z,20.98
2018-02-03T03:56:25.185Z,20.99
2018-02-03T03:56:56.818Z,20.98
2018-02-03T03:57:28.450Z,20.97
2018-02-03T03:58:00.078Z,21.00
2018-02-03T03:58:31.701Z,21.00
2018-02-03T03:59:03.330Z,21.02
2018-02-03T03:59:34.954Z,21.01
2018-02-03T04:00:06.581Z,21.02
2018-02-03T04:00:38.386Z,21.01
2018-02-03T04:01:10.018Z,20.98
2018-02-03T04:01:41.647Z,21.00
2018-02-03T04:02:13.274Z,21.01
2018-02-03T04:02:44.901Z,21.02
2018-02-03T04:03:16.534Z,21.03
2018-02-03T04:03:48.217Z,21.05
2018-02-03T04:04:19.842Z,21.04
2018-02-03T04:04:51.469Z,21.04
2018-02-03T04:05:23.094Z,21.02
2018-02-03T04:05:54.721Z,21.01
2018-02-03T04:06:26.354Z,21.02
2018-02-03T04:06:57.977Z,21.04
2018-02-03T04:07:29.630Z,21.04
2018-02-03T04:08:01.273Z,21.03
2018-02-03T04:08:32.954Z,21.02
2018-02-03T04:09:04.650Z,21.01
2018-02-03T04:09:36.281Z,21.02
2018-02-03T04:10:07.906Z,21.03
2018-02-03T04:10:39.529Z,21.02
2018-02-03T04:11:11.153Z,21.02
2018-02-03T04:11:42.777Z,21.00
2018-02-03T04:12:14.397Z,21.00
2018-02-03T04:12:46.030Z,20.98
2018-02-03T04:13:17.658Z,20.98
2018-02-03T04:13:49.281Z,20.98
2018-02-03T04:14:20.970Z,20.98
2018-02-03T04:14:52.593Z,20.97
2018-02-03T04:15:24.220Z,20.96
2018-02-03T04:15:55.872Z,20.98
2018-02-03T04:16:27.509Z,20.97
2018-02-03T04:16:59.137Z,20.97
2018-02-03T04:17:30.757Z,20.96
2018-02-03T04:18:02.382Z,20.96
2018-02-03T04:18:34.039Z,20.95
2018-02-03T04:19:05.686Z,20.95
2018-02-03T04:19:37.374Z,20.94
2018-02-03T04:20:08.997Z,20.96
2018-02-03T04:20:40.623Z,20.96
2018-02-03T04:21:12.254Z,20.96
2018-02-03T04:21:43.877Z,20.96
2018-02-03T04:22:15.506Z,20.95
2018-02-03T04:22:47.129Z,20.95
2018-02-03T04:23:18.757Z,20.95
2018-02-03T04:23:50.381Z,20.96
2018-02-03T04:24:22.005Z,20.97
2018-02-03T04:24:53.688Z,20.97
2018-02-03T04:25:25.318Z,20.95
2018-02-03T04:25:56.944Z,20.97
2018-02-03T04:26:28.598Z,20.97
2018-02-03T04:27:00.231Z,20.98
2018-02-03T04:27:31.858Z,20.96
2018-02-03T04:28:03.482Z,20.97
2018-02-03T04:28:35.120Z,20.97
2018-02-03T04:29:06.753Z,20.95
2018-02-03T04:29:38.378Z,20.95
2018-02-03T04:30:10.085Z,20.93
2018-02-03T04:30:41.741Z,20.94
2018-02-03T04:31:13.366Z,20.93
2018-02-03T04:31:44.989Z,20.93
2018-02-03T04:32:16.618Z,20.93
2018-02-03T04:32:48.248Z,20.93
2018-02-03T04:33:19.882Z,20.92
2018-02-03T04:33:51.506Z,20.92
2018-02-03T04:34:23.134Z,20.93
2018-02-03T04:34:54.763Z,20.93
2018-02-03T04:35:26.386Z,20.93
2018-02-03T04:35:58.013Z,20.91
2018-02-03T04:36:29.641Z,20.91
2018-02-03T04:37:01.270Z,20.90
2018-02-03T04:37:32.902Z,20.89
2018-02-03T04:38:04.525Z,20.90
2018-02-03T04:38:36.149Z,20.89
2018-02-03T04:39:07.782Z,20.88
2018-02-03T04:39:39.406Z,20.87
2018-02-03T04:40:11.025Z,20.87
2018-02-03T04:40:42.725Z,20.88
2018-02-03T04:41:14.349Z,20.87
2018-02-03T04:41:45.977Z,20.87
2018-02-03T04:42:17.617Z,20.87
2018-02-03T04:42:49.241Z,20.88
2018-02-03T04:43:20.861Z,20.88
2018-02-03T04:43:52.490Z,20.87
2018-02-03T04:44:24.126Z,20.89
2018-02-03T04:44:55.762Z,20.89
2018-02-03T04:45:27.386Z,20.88
2018-02-03T04:45:59.072Z,20.90
2018-02-03T04:46:30.703Z,20.90
2018-02-03T04:47:02.325Z,20.91
2018-02-03T04:47:33.954Z,20.92
2018-02-03T04:48:05.577Z,20.92
2018-02-03T04:48:37.200Z,20.89
2018-02-03T04:49:08.821Z,20.90
2018-02-03T04:49:40.445Z,20.89
2018-02-03T04:50:12.086Z,20.91
2018-02-03T04:50:43.713Z,20.88
2018-02-03T04:51:15.402Z,20.89
2018-02-03T04:51:47.033Z,20.89
2018-02-03T04:52:18.659Z,20.89
2018-02-03T04:52:50.281Z,20.87
2018-02-03T04:53:21.910Z,20.89
2018-02-03T04:53:53.538Z,20.89
2018-02-03T04:54:25.160Z,20.88
2018-02-03T04:54:56.790Z,20.88
2018-02-03T04:55:28.413Z,20.89
2018-02-03T04:56:00.042Z,20.91
2018-02-03T04:56:31.735Z,20.90
2018-02-03T04:57:03.362Z,20.90
2018-02-03T04:57:34.992Z,20.91
2018-02-03T04:58:06.626Z,20.92
2018-02-03T04:58:38.254Z,20.91
2018-02-03T04:59:09.882Z,20.91
2018-02-03T04:59:41.509Z,20.90
2018-02-03T05:00:13.139Z,20.89
2018-02-03T05:00:44.774Z,20.89
2018-02-03T05:01:16.426Z,20.90
2018-02-03T05:01:48.109Z,20.89
2018-02-03T05:02:19.730Z,20.89
2018-02-03T05:02:51.361Z,20.89
2018-02-03T05:03:22.981Z,20.88
2018-02-03T05:03:54.609Z,20.90
2018-02-03T05:04:26.234Z,20.88
2018-02-03T05:04:57.861Z,20.88
2018-02-03T05:05:29.489Z,20.88
2018-02-03T05:06:01.118Z,20.88
2018-02-03T05:06:32.753Z,20.88
2018-02-03T05:07:04.438Z,20.92
2018-02-03T05:07:36.062Z,20.92
2018-02-03T05:08:07.681Z,20.93
2018-02-03T05:08:39.310Z,20.91
2018-02-03T05:09:10.938Z,20.92
2018-02-03T05:09:42.561Z,20.93
2018-02-03T05:10:14.189Z,20.93
2018-02-03T05:10:45.814Z,20.93
2018-02-03T05:11:17.442Z,20.93
2018-02-03T05:11:49.065Z,20.93
2018-02-03T05:12:20.686Z,20.91
2018-02-03T05:12:52.309Z,20.92
2018-02-03T05:13:23.933Z,20.93
2018-02-03T05:13:55.585Z,20.90
2018-02-03T05:14:27.214Z,20.90
2018-02-03T05:14:58.838Z,20.90
2018-02-03T05:15:30.466Z,20.90
2018-02-03T05:16:02.093Z,20.90
2018-02-03T05:16:33.721Z,20.91
2018-02-03T05:17:05.350Z,20.89
2018-02-03T05:17:37.046Z,20.92
2018-02-03T05:18:08.674Z,20.89
2018-02-03T05:18:40.306Z,20.91
2018-02-03T05:19:11.954Z,20.91
2018-02-03T05:19:43.582Z,20.90
2018-02-03T05:20:15.206Z,20.90
2018-02-03T05:20:46.829Z,20.90
2018-02-03T05:21:18.453Z,20.90
2018-02-03T05:21:50.082Z,20.90
2018-02-03T05:22:21.705Z,20.90
2018-02-03T05:22:53.389Z,20.91
2018-02-03T05:23:25.017Z,20.90
2018-02-03T05:23:56.645Z,20.91
2018-02-03T05:24:28.274Z,20.90
2018-02-03T05:24:59.894Z,20.89
2018-02-03T05:25:31.522Z,20.90
2018-02-03T05:26:03.150Z,20.91
2018-02-03T05:26:34.774Z,20.91
2018-02-03T05:27:06.397Z,20.90
2018-02-03T05:27:38.055Z,20.89
2018-02-03T05:28:09.749Z,20.90
2018-02-03T05:28:41.374Z,20.90
2018-02-03T05:29:13.002Z,20.89
2018-02-03T05:29:44.625Z,20.91
2018-02-03T05:30:16.258Z,20.92
2018-02-03T05:30:47.881Z,20.85
2018-02-03T05:31:19.510Z,20.92
2018-02-03T05:31:51.130Z,20.89
2018-02-03T05:32:22.754Z,20.92
2018-02-03T05:32:54.382Z,20.91
2018-02-03T05:33:26.123Z,20.90
2018-02-03T05:33:57.725Z,20.89
2018-02-03T05:34:29.369Z,20.88
2018-02-03T05:35:01.025Z,20.89
2018-02-03T05:35:32.649Z,20.88
2018-02-03T05:36:04.278Z,20.88
2018-02-03T05:36:35.916Z,20.87
2018-02-03T05:37:07.541Z,20.87
2018-02-03T05:37:39.198Z,20.87
2018-02-03T05:38:10.851Z,20.87
2018-02-03T05:38:43.270Z,20.86
2018-02-03T05:39:14.917Z,20.85
2018-02-03T05:39:46.569Z,20.84
2018-02-03T05:40:18.214Z,20.84
2018-02-03T05:40:49.862Z,20.85
2018-02-03T05:41:21.485Z,20.86
2018-02-03T05:41:53.109Z,20.86
2018-02-03T05:42:24.733Z,20.86
2018-02-03T05:42:56.369Z,20.86
2018-02-03T05:43:28.018Z,20.85
2018-02-03T05:43:59.726Z,20.84
2018-02-03T05:44:32.165Z,20.85
2018-02-03T05:45:03.813Z,20.86
2018-02-03T05:45:35.453Z,20.86
2018-02-03T05:46:07.097Z,20.85
2018-02-03T05:46:38.737Z,20.86
2018-02-03T05:47:10.390Z,20.86
2018-02-03T05:47:42.034Z,20.85
2018-02-03T05:48:13.681Z,20.83
2018-02-03T05:48:45.334Z,20.81
2018-02-03T05:49:16.981Z,20.81
2018-02-03T05:49:48.602Z,20.82
2018-02-03T05:50:20.257Z,20.82
2018-02-03T05:50:51.878Z,20.83
2018-02-03T05:51:23.501Z,20.82
2018-02-03T05:51:55.122Z,20.82
2018-02-03T05:52:26.745Z,20.82
2018-02-03T05:52:58.365Z,20.83
2018-02-03T05:53:29.985Z,20.83
2018-02-03T05:54:01.609Z,20.82
2018-02-03T05:54:33.307Z,20.82
2018-02-03T05:55:04.929Z,20.81
2018-02-03T05:55:36.573Z,20.82
2018-02-03T05:56:08.229Z,20.81
2018-02-03T05:56:39.858Z,20.82
2018-02-03T05:57:11.481Z,20.82
2018-02-03T05:57:43.106Z,20.84
2018-02-03T05:58:14.733Z,20.84
2018-02-03T05:58:46.362Z,20.85
2018-02-03T05:59:17.998Z,20.85
2018-02-03T05:59:49.677Z,20.84
2018-02-03T06:00:21.306Z,20.85
2018-02-03T06:00:52.934Z,20.85
2018-02-03T06:01:24.562Z,20.85
2018-02-03T06:01:56.181Z,20.85
2018-02-03T06:02:27.801Z,20.85
2018-02-03T06:02:59.429Z,20.88
2018-02-03T06:03:31.053Z,20.86
2018-02-03T06:04:02.673Z,20.88
2018-02-03T06:04:34.302Z,20.87
2018-02-03T06:05:05.993Z,20.86
2018-02-03T06:05:37.623Z,20.85
2018-02-03T06:06:09.250Z,20.85
2018-02-03T06:06:40.878Z,20.84
2018-02-03T06:07:12.506Z,20.84
2018-02-03T06:07:44.129Z,20.84
2018-02-03T06:08:15.757Z,20.86
2018-02-03T06:08:47.386Z,20.87
2018-02-03T06:09:19.009Z,20.87
2018-02-03T06:09:50.633Z,20.87
2018-02-03T06:10:22.322Z,20.87
2018-02-03T06:10:53.949Z,20.85
2018-02-03T06:11:25.573Z,20.85
2018-02-03T06:11:57.193Z,20.86
2018-02-03T06:12:28.821Z,20.87
2018-02-03T06:13:00.455Z,20.87
2018-02-03T06:13:32.077Z,20.87
2018-02-03T06:14:03.705Z,20.86
2018-02-03T06:14:35.334Z,20.86
2018-02-03T06:15:06.957Z,20.88
2018-02-03T06:15:38.642Z,20.88
2018-02-03T06:16:10.262Z,20.88
2018-02-03T06:16:41.882Z,20.89
2018-02-03T06:17:13.509Z,20.89
2018-02-03T06:17:45.137Z,20.90
2018-02-03T06:18:16.762Z,20.89
2018-02-03T06:18:48.381Z,20.87
2018-02-03T06:19:20.006Z,20.89
2018-02-03T06:19:51.638Z,20.89
2018-02-03T06:20:23.261Z,20.89
2018-02-03T06:20:54.941Z,20.89
2018-02-03T06:21:26.582Z,20.89
2018-02-03T06:21:58.209Z,20.89
2018-02-03T06:22:29.838Z,20.89
2018-02-03T06:23:01.466Z,20.89
2018-02-03T06:23:33.089Z,20.90
2018-02-03T06:24:04.714Z,20.92
2018-02-03T06:24:36.338Z,20.92
2018-02-03T06:25:07.961Z,20.94
2018-02-03T06:25:39.590Z,20.95
2018-02-03T06:26:11.214Z,20.96
2018-02-03T06:26:42.842Z,20.96
2018-02-03T06:27:14.474Z,20.95
2018-02-03T06:27:46.101Z,20.93
2018-02-03T06:28:17.733Z,20.94
2018-02-03T06:28:49.366Z,20.95
2018-02-03T06:29:20.989Z,20.93
2018-02-03T06:29:52.612Z,20.93
2018-02-03T06:30:24.234Z,20.90
2018-02-03T06:30:55.860Z,20.91
2018-02-03T06:31:27.549Z,20.90
2018-02-03T06:31:59.180Z,20.90
2018-02-03T06:32:30.810Z,20.88
2018-02-03T06:33:02.433Z,20.90
2018-02-03T06:33:34.058Z,20.91
2018-02-03T06:34:05.681Z,20.91
2018-02-03T06:34:37.310Z,20.92
2018-02-03T06:35:08.938Z,20.91
2018-02-03T06:35:40.565Z,20.91
2018-02-03T06:36:12.189Z,20.91
2018-02-03T06:36:43.878Z,20.90
2018-02-03T06:37:15.502Z,20.90
2018-02-03T06:37:47.130Z,20.91
2018-02-03T06:38:18.798Z,20.91
2018-02-03T06:38:50.405Z,20.92
2018-02-03T06:39:22.062Z,20.91
2018-02-03T06:39:53.686Z,20.92
2018-02-03T06:40:25.314Z,20.92
2018-02-03T06:40:56.937Z,20.94
2018-02-03T06:41:28.561Z,20.91
2018-02-03T06:42:00.254Z,20.93
2018-02-03T06:42:31.877Z,20.93
2018-02-03T06:43:03.501Z,20.93
2018-02-03T06:43:35.131Z,20.91
2018-02-03T06:44:06.762Z,20.91
2018-02-03T06:44:38.386Z,20.93
2018-02-03T06:45:10.025Z,20.92
2018-02-03T06:45:41.649Z,20.90
2018-02-03T06:46:13.278Z,20.90
2018-02-03T06:46:44.921Z,20.89
2018-02-03T06:47:16.610Z,20.89